createdAt,value
2023-04-11T00:01:30.089Z,11.10
2023-04-11T00:03:59.319Z,11.10
2023-04-11T00:06:28.514Z,11.20
2023-04-11T00:08:57.801Z,11.10
2023-04-11T00:11:27.241Z,11.20
2023-04-11T00:13:58.089Z,11.20
2023-04-11T00:16:27.611Z,11.10
2023-04-11T00:18:57.435Z,11.10
2023-04-11T00:21:26.525Z,11.10
2023-04-11T00:23:55.512Z,11.10
2023-04-11T00:26:24.799Z,11.10
2023-04-11T00:28:54.106Z,11.10
2023-04-11T00:31:24.719Z,11.10
2023-04-11T00:33:53.804Z,11.10
2023-04-11T00:36:22.900Z,11.10
2023-04-11T00:38:51.843Z,11.10
2023-04-11T00:41:20.955Z,11.10
2023-04-11T00:43:50.155Z,11.10
2023-04-11T00:46:20.691Z,11.10
2023-04-11T00:48:51.457Z,11.10
2023-04-11T00:51:21.664Z,11.10
2023-04-11T00:53:50.702Z,11.10
2023-04-11T00:56:20.059Z,11.00
2023-04-11T00:58:49.407Z,10.80
2023-04-11T01:01:20.206Z,11.10
2023-04-11T01:03:51.076Z,11.00
2023-04-11T01:06:23.068Z,11.00
2023-04-11T01:08:52.360Z,11.00
2023-04-11T01:11:21.410Z,11.00
2023-04-11T01:13:52.109Z,11.00
2023-04-11T01:16:22.024Z,11.00
2023-04-11T01:18:53.044Z,11.00
2023-04-11T01:21:23.215Z,11.00
2023-04-11T01:23:54.531Z,11.00
2023-04-11T01:26:23.916Z,11.00
2023-04-11T01:28:53.602Z,11.00
2023-04-11T01:31:23.901Z,11.00
2023-04-11T01:33:53.057Z,11.00
2023-04-11T01:36:22.252Z,11.00
2023-04-11T01:38:53.748Z,11.00
2023-04-11T01:41:23.947Z,11.00
2023-04-11T01:43:53.244Z,11.00
2023-04-11T01:46:23.238Z,10.90
2023-04-11T01:48:54.819Z,10.90
2023-04-11T01:51:23.989Z,10.90
2023-04-11T01:53:54.384Z,10.90
2023-04-11T01:56:23.447Z,10.90
2023-04-11T01:58:52.508Z,10.90
2023-04-11T02:01:22.784Z,10.90
2023-04-11T02:03:53.007Z,10.90
2023-04-11T02:06:22.259Z,10.90
2023-04-11T02:08:51.167Z,10.90
2023-04-11T02:11:21.703Z,10.70
2023-04-11T02:13:52.053Z,10.80
2023-04-11T02:16:26.088Z,10.90
2023-04-11T02:18:55.564Z,10.90
2023-04-11T02:21:24.784Z,10.90
2023-04-11T02:23:53.712Z,10.90
2023-04-11T02:26:26.918Z,10.90
2023-04-11T02:28:58.197Z,10.90
2023-04-11T02:31:27.363Z,10.90
2023-04-11T02:33:56.355Z,10.90
2023-04-11T02:36:26.996Z,10.80
2023-04-11T02:38:56.244Z,10.80
2023-04-11T02:41:26.788Z,10.80
2023-04-11T02:43:56.274Z,10.90
2023-04-11T02:46:25.299Z,10.70
2023-04-11T02:48:54.410Z,10.70
2023-04-11T02:51:23.745Z,10.70
2023-04-11T02:53:53.189Z,10.60
2023-04-11T02:56:23.113Z,10.60
2023-04-11T02:58:58.419Z,10.60
2023-04-11T03:01:29.589Z,10.60
2023-04-11T03:03:59.214Z,10.60
2023-04-11T03:06:37.429Z,10.60
2023-04-11T03:09:06.586Z,10.60
2023-04-11T03:11:35.950Z,10.60
2023-04-11T03:14:08.001Z,10.60
2023-04-11T03:16:37.295Z,10.60
2023-04-11T03:19:07.095Z,10.60
2023-04-11T03:21:36.145Z,10.60
2023-04-11T03:24:05.816Z,10.60
2023-04-11T03:26:53.339Z,10.60
2023-04-11T03:29:23.724Z,10.60
2023-04-11T03:32:03.589Z,10.60
2023-04-11T03:34:36.535Z,10.60
2023-04-11T03:37:08.074Z,10.60
2023-04-11T03:39:39.113Z,10.60
2023-04-11T03:42:09.527Z,10.60
2023-04-11T03:44:40.471Z,10.60
2023-04-11T03:47:09.860Z,10.60
2023-04-11T03:49:44.046Z,10.60
2023-04-11T03:52:17.787Z,10.70
2023-04-11T03:54:49.307Z,10.70
2023-04-11T03:57:36.569Z,10.70
2023-04-11T04:00:08.820Z,10.70
2023-04-11T04:02:57.802Z,10.60
2023-04-11T04:05:27.339Z,10.70
2023-04-11T04:07:56.227Z,10.80
2023-04-11T04:10:40.634Z,10.80
2023-04-11T04:13:09.664Z,10.80
2023-04-11T04:15:45.243Z,10.80
2023-04-11T04:18:16.053Z,10.90
2023-04-11T04:20:49.523Z,10.90
2023-04-11T04:23:20.380Z,10.90
2023-04-11T04:26:08.094Z,11.00
2023-04-11T04:28:38.548Z,11.00
2023-04-11T04:31:09.277Z,11.00
2023-04-11T04:33:43.213Z,11.00
2023-04-11T04:36:21.000Z,11.00
2023-04-11T04:38:52.264Z,11.00
2023-04-11T04:41:24.608Z,11.00
2023-04-11T04:44:01.280Z,10.90
2023-04-11T04:46:41.091Z,10.90
2023-04-11T04:49:10.516Z,10.90
2023-04-11T04:51:40.512Z,10.90
2023-04-11T04:54:09.853Z,10.80
2023-04-11T04:56:57.246Z,10.90
2023-04-11T04:59:27.032Z,10.90
2023-04-11T05:02:04.873Z,10.90
2023-04-11T05:04:34.562Z,10.90
2023-04-11T05:07:06.569Z,10.80
2023-04-11T05:09:38.114Z,10.80
2023-04-11T05:12:16.291Z,10.80
2023-04-11T05:14:45.569Z,10.80
2023-04-11T05:17:16.511Z,10.80
2023-04-11T05:19:45.820Z,10.90
2023-04-11T05:22:14.908Z,10.90
2023-04-11T05:24:49.850Z,10.90
2023-04-11T05:27:19.524Z,10.90
2023-04-11T05:29:48.727Z,11.00
2023-04-11T05:32:21.367Z,11.00
2023-04-11T05:34:58.395Z,11.00
2023-04-11T05:37:44.999Z,11.00
2023-04-11T05:40:14.624Z,11.10
2023-04-11T05:42:43.820Z,11.10
2023-04-11T05:45:13.000Z,11.10
2023-04-11T05:47:43.440Z,11.10
2023-04-11T05:50:12.609Z,11.10
2023-04-11T05:52:41.510Z,11.10
2023-04-11T05:55:11.362Z,11.10
2023-04-11T05:57:40.365Z,11.00
2023-04-11T06:00:13.288Z,11.00
2023-04-11T06:02:44.450Z,10.90
2023-04-11T06:05:16.066Z,10.90
2023-04-11T06:07:45.714Z,10.90
2023-04-11T06:10:14.911Z,10.90
2023-04-11T06:12:44.062Z,10.90
2023-04-11T06:15:14.104Z,10.90
2023-04-11T06:17:45.298Z,10.90
2023-04-11T06:20:14.595Z,10.90
2023-04-11T06:22:43.742Z,11.00
2023-04-11T06:25:13.025Z,11.00
2023-04-11T06:27:42.417Z,11.00
2023-04-11T06:30:11.826Z,11.00
2023-04-11T06:32:40.981Z,11.00
2023-04-11T06:35:11.979Z,11.10
2023-04-11T06:37:42.714Z,11.10
2023-04-11T06:40:12.956Z,11.10
2023-04-11T06:42:43.679Z,11.10
2023-04-11T06:45:13.161Z,11.10
2023-04-11T06:47:42.180Z,11.10
2023-04-11T06:50:13.418Z,11.10
2023-04-11T06:52:42.509Z,11.10
2023-04-11T06:55:14.738Z,11.20
2023-04-11T06:57:45.608Z,11.20
2023-04-11T07:00:16.522Z,11.20
2023-04-11T07:02:45.747Z,11.20
2023-04-11T07:05:16.938Z,11.30
2023-04-11T07:07:46.020Z,11.30
2023-04-11T07:10:14.867Z,11.30
2023-04-11T07:12:45.649Z,11.30
2023-04-11T07:15:14.729Z,11.30
2023-04-11T07:17:43.655Z,11.30
2023-04-11T07:20:13.890Z,11.30
2023-04-11T07:22:44.745Z,11.30
2023-04-11T07:25:16.848Z,11.30
2023-04-11T07:27:46.714Z,11.30
2023-04-11T07:30:34.016Z,11.20
2023-04-11T07:33:03.460Z,11.20
2023-04-11T07:35:51.592Z,11.10
2023-04-11T07:38:29.704Z,11.10
2023-04-11T07:40:59.749Z,11.10
2023-04-11T07:43:29.734Z,11.10
2023-04-11T07:46:00.236Z,11.10
2023-04-11T07:48:31.534Z,11.10
2023-04-11T07:51:00.674Z,11.10
2023-04-11T07:53:32.856Z,11.10
2023-04-11T07:56:01.949Z,11.10
2023-04-11T07:58:31.173Z,11.10
2023-04-11T08:01:02.577Z,11.20
2023-04-11T08:03:31.983Z,11.20
2023-04-11T08:06:01.110Z,11.30
2023-04-11T08:08:32.007Z,11.40
2023-04-11T08:11:00.931Z,11.40
2023-04-11T08:13:29.874Z,11.50
2023-04-11T08:15:58.979Z,11.60
2023-04-11T08:18:27.867Z,11.70
2023-04-11T08:20:56.817Z,11.80
2023-04-11T08:23:25.938Z,11.80
2023-04-11T08:25:56.265Z,12.00
2023-04-11T08:28:25.613Z,12.10
2023-04-11T08:31:13.692Z,12.20
2023-04-11T08:33:43.691Z,12.40
2023-04-11T08:36:14.609Z,12.50
2023-04-11T08:38:43.958Z,12.70
2023-04-11T08:41:14.700Z,12.80
2023-04-11T08:43:44.487Z,12.80
2023-04-11T08:46:13.943Z,12.90
2023-04-11T08:48:42.953Z,12.90
2023-04-11T08:51:12.705Z,12.80
2023-04-11T08:53:42.585Z,12.80
2023-04-11T08:56:18.192Z,12.80
2023-04-11T08:58:47.324Z,12.80
2023-04-11T09:01:33.441Z,12.80
2023-04-11T09:04:05.420Z,12.80
2023-04-11T09:06:36.192Z,12.80
2023-04-11T09:09:06.737Z,12.90
2023-04-11T09:11:55.480Z,13.00
2023-04-11T09:14:27.417Z,13.00
2023-04-11T09:16:58.636Z,13.00
2023-04-11T09:19:28.894Z,13.10
2023-04-11T09:22:01.333Z,12.80
2023-04-11T09:24:32.026Z,13.00
2023-04-11T09:27:14.465Z,13.00
2023-04-11T09:29:45.642Z,12.90
2023-04-11T09:32:33.806Z,12.90
2023-04-11T09:35:22.978Z,12.80
2023-04-11T09:37:55.231Z,12.80
2023-04-11T09:40:26.022Z,12.80
2023-04-11T09:43:00.714Z,12.80
2023-04-11T09:45:38.270Z,12.90
2023-04-11T09:48:14.509Z,13.00
2023-04-11T09:50:44.732Z,13.10
2023-04-11T09:53:13.892Z,13.30
2023-04-11T09:55:43.099Z,13.50
2023-04-11T09:58:19.527Z,13.50
2023-04-11T10:00:49.788Z,13.60
2023-04-11T10:03:23.099Z,13.60
2023-04-11T10:05:55.802Z,13.50
2023-04-11T10:08:44.284Z,13.40
2023-04-11T10:11:18.694Z,13.30
2023-04-11T10:13:50.448Z,13.20
2023-04-11T10:16:22.517Z,13.10
2023-04-11T10:19:26.384Z,13.10
2023-04-11T10:21:55.334Z,13.10
2023-04-11T10:24:26.842Z,13.20
2023-04-11T10:26:57.719Z,13.30
2023-04-11T10:29:52.816Z,13.60
2023-04-11T10:32:26.693Z,13.80
2023-04-11T10:35:25.089Z,14.00
2023-04-11T10:37:54.058Z,14.10
2023-04-11T10:40:24.339Z,14.20
2023-04-11T10:42:53.470Z,14.30
2023-04-11T10:45:25.704Z,14.30
2023-04-11T10:48:07.809Z,14.30
2023-04-11T10:50:41.257Z,14.30
2023-04-11T10:53:14.480Z,14.20
2023-04-11T10:55:48.752Z,14.10
2023-04-11T10:58:40.762Z,14.10
2023-04-11T11:03:57.137Z,14.20
2023-04-11T11:06:36.161Z,14.20
2023-04-11T11:09:23.532Z,14.20
2023-04-11T11:12:07.929Z,14.00
2023-04-11T11:14:37.359Z,14.00
2023-04-11T11:17:09.042Z,14.10
2023-04-11T11:19:38.363Z,13.90
2023-04-11T11:22:16.532Z,14.00
2023-04-11T11:24:45.905Z,14.00
2023-04-11T11:27:21.261Z,14.00
2023-04-11T11:29:50.761Z,13.90
2023-04-11T11:32:29.022Z,13.70
2023-04-11T11:34:59.133Z,13.30
2023-04-11T11:37:28.246Z,12.90
2023-04-11T11:39:58.793Z,12.60
2023-04-11T11:42:28.287Z,12.30
2023-04-11T11:45:15.858Z,12.10
2023-04-11T11:47:47.177Z,11.80
2023-04-11T11:50:27.372Z,11.70
2023-04-11T11:52:57.246Z,11.50
2023-04-11T11:55:34.654Z,11.40
2023-04-11T11:58:23.112Z,11.40
2023-04-11T12:00:52.960Z,11.40
2023-04-11T12:03:25.728Z,11.30
2023-04-11T12:05:58.440Z,11.30
2023-04-11T12:08:27.594Z,11.40
2023-04-11T12:10:56.423Z,11.40
2023-04-11T12:13:27.963Z,11.50
2023-04-11T12:15:58.902Z,11.50
2023-04-11T12:18:29.888Z,11.60
2023-04-11T12:20:59.168Z,11.60
2023-04-11T12:23:28.012Z,11.70
2023-04-11T12:25:57.046Z,11.70
2023-04-11T12:28:26.746Z,11.70
2023-04-11T12:30:55.872Z,11.70
2023-04-11T12:33:25.055Z,11.70
2023-04-11T12:35:56.122Z,11.70
2023-04-11T12:38:25.397Z,11.60
2023-04-11T12:41:13.954Z,11.60
2023-04-11T12:43:46.103Z,11.60
2023-04-11T12:46:15.141Z,11.60
2023-04-11T12:48:44.910Z,11.60
2023-04-11T12:51:15.340Z,11.60
2023-04-11T12:53:52.040Z,11.50
2023-04-11T12:56:22.356Z,11.60
2023-04-11T12:58:51.646Z,11.50
2023-04-11T13:01:20.506Z,11.50
2023-04-11T13:03:49.593Z,11.50
2023-04-11T13:06:20.569Z,11.50
2023-04-11T13:08:49.623Z,11.50
2023-04-11T13:11:18.495Z,11.50
2023-04-11T13:13:47.514Z,11.40
2023-04-11T13:16:16.806Z,11.40
2023-04-11T13:18:45.816Z,11.50
2023-04-11T13:21:14.878Z,11.50
2023-04-11T13:23:45.415Z,11.50
2023-04-11T13:26:14.537Z,11.70
2023-04-11T13:28:43.458Z,11.70
2023-04-11T13:31:12.378Z,11.70
2023-04-11T13:33:41.853Z,11.70
2023-04-11T13:36:12.078Z,11.80
2023-04-11T13:38:41.100Z,11.80
2023-04-11T13:41:13.119Z,11.80
2023-04-11T13:43:42.765Z,11.80
2023-04-11T13:46:19.905Z,11.80
2023-04-11T13:48:49.660Z,11.80
2023-04-11T13:51:18.674Z,11.90
2023-04-11T13:53:47.623Z,12.00
2023-04-11T13:56:18.149Z,12.00
2023-04-11T13:58:47.425Z,12.00
2023-04-11T14:01:17.379Z,12.00
2023-04-11T14:03:46.644Z,11.90
2023-04-11T14:06:15.711Z,11.90
2023-04-11T14:08:44.913Z,11.80
2023-04-11T14:11:14.018Z,11.80
2023-04-11T14:13:44.435Z,11.80
2023-04-11T14:16:13.447Z,11.70
2023-04-11T14:18:42.698Z,11.70
2023-04-11T14:21:11.723Z,11.60
2023-04-11T14:23:40.726Z,11.60
2023-04-11T14:26:09.691Z,11.60
2023-04-11T14:28:38.609Z,11.60
2023-04-11T14:31:09.976Z,11.60
2023-04-11T14:33:39.000Z,11.60
2023-04-11T14:36:09.231Z,11.60
2023-04-11T14:38:38.168Z,11.60
2023-04-11T14:41:07.714Z,11.60
2023-04-11T14:43:36.679Z,11.60
2023-04-11T14:46:05.776Z,11.50
2023-04-11T14:48:36.234Z,11.50
2023-04-11T14:51:05.729Z,11.50
2023-04-11T14:53:34.994Z,11.50
2023-04-11T14:56:06.997Z,11.50
2023-04-11T14:58:36.132Z,11.50
2023-04-11T15:01:05.431Z,11.50
2023-04-11T15:03:36.699Z,11.50
2023-04-11T15:06:06.547Z,11.50
2023-04-11T15:08:35.897Z,11.50
2023-04-11T15:11:05.033Z,11.50
2023-04-11T15:13:34.103Z,11.50
2023-04-11T15:16:03.591Z,11.50
2023-04-11T15:18:33.534Z,11.50
2023-04-11T15:21:03.996Z,11.50
2023-04-11T15:23:33.049Z,11.50
2023-04-11T15:26:03.400Z,11.50
2023-04-11T15:28:34.733Z,11.50
2023-04-11T15:31:05.148Z,11.50
2023-04-11T15:33:35.026Z,11.50
2023-04-11T15:36:05.952Z,11.50
2023-04-11T15:38:37.887Z,11.50
2023-04-11T15:41:07.786Z,11.50
2023-04-11T15:43:37.465Z,11.50
2023-04-11T15:46:09.443Z,11.50
2023-04-11T15:48:42.880Z,11.50
2023-04-11T15:51:14.415Z,11.50
2023-04-11T15:53:43.762Z,11.50
2023-04-11T15:56:13.947Z,11.50
2023-04-11T15:58:43.502Z,11.50
2023-04-11T16:01:23.041Z,11.50
2023-04-11T16:03:54.152Z,11.50
2023-04-11T16:06:24.881Z,11.50
2023-04-11T16:08:54.228Z,11.40
2023-04-11T16:11:23.214Z,11.40
2023-04-11T16:13:52.064Z,11.40
2023-04-11T16:16:21.820Z,11.40
2023-04-11T16:18:51.057Z,11.30
2023-04-11T16:21:19.980Z,11.30
2023-04-11T16:23:50.640Z,11.30
2023-04-11T16:26:19.641Z,11.20
2023-04-11T16:28:50.749Z,11.20
2023-04-11T16:31:38.705Z,11.20
2023-04-11T16:34:08.837Z,11.20
2023-04-11T16:36:37.967Z,11.20
2023-04-11T16:39:09.254Z,11.20
2023-04-11T16:41:38.223Z,11.20
2023-04-11T16:44:11.526Z,11.20
2023-04-11T16:46:40.663Z,11.20
2023-04-11T16:49:10.108Z,11.20
2023-04-11T16:51:40.091Z,11.20
2023-04-11T16:54:11.589Z,11.20
2023-04-11T16:56:41.118Z,11.20
2023-04-11T16:59:12.441Z,11.20
2023-04-11T17:01:42.387Z,11.20
2023-04-11T17:04:15.112Z,11.20
2023-04-11T17:06:44.947Z,11.30
2023-04-11T17:09:16.104Z,11.20
2023-04-11T17:11:45.284Z,11.30
2023-04-11T17:14:14.316Z,11.30
2023-04-11T17:16:43.708Z,11.30
2023-04-11T17:19:12.848Z,11.30
2023-04-11T17:21:41.675Z,11.30
2023-04-11T17:24:10.680Z,11.30
2023-04-11T17:26:41.370Z,11.40
2023-04-11T17:29:11.189Z,11.40
2023-04-11T17:31:40.290Z,11.40
2023-04-11T17:34:09.269Z,11.40
2023-04-11T17:36:42.942Z,11.40
2023-04-11T17:39:17.763Z,11.40
2023-04-11T17:41:48.496Z,11.40
2023-04-11T17:44:18.108Z,11.40
2023-04-11T17:46:50.009Z,11.40
2023-04-11T17:49:20.218Z,11.30
2023-04-11T17:51:58.584Z,11.30
2023-04-11T17:54:29.039Z,11.30
2023-04-11T17:57:00.431Z,11.20
2023-04-11T17:59:29.676Z,11.20
2023-04-11T18:01:58.789Z,11.20
2023-04-11T18:04:27.904Z,11.20
2023-04-11T18:06:59.998Z,11.10
2023-04-11T18:09:32.424Z,11.10
2023-04-11T18:12:02.815Z,11.10
2023-04-11T18:14:51.083Z,11.10
2023-04-11T18:17:20.427Z,11.10
2023-04-11T18:19:49.798Z,11.10
2023-04-11T18:22:20.066Z,11.10
2023-04-11T18:24:49.128Z,11.10
2023-04-11T18:27:19.617Z,11.10
2023-04-11T18:29:51.907Z,11.10
2023-04-11T18:32:24.877Z,11.20
2023-04-11T18:34:56.289Z,11.20
2023-04-11T18:37:26.404Z,11.20
2023-04-11T18:39:55.598Z,11.20
2023-04-11T18:42:27.341Z,11.30
2023-04-11T18:44:57.441Z,11.30
2023-04-11T18:47:26.757Z,11.30
2023-04-11T18:49:56.286Z,11.30
2023-04-11T18:52:26.774Z,11.30
2023-04-11T18:54:57.930Z,11.40
2023-04-11T18:57:33.072Z,11.40
2023-04-11T19:00:13.206Z,11.40
2023-04-11T19:02:43.753Z,11.40
2023-04-11T19:05:14.462Z,11.40
2023-04-11T19:07:45.551Z,11.40
2023-04-11T19:10:14.987Z,11.40
2023-04-11T19:12:45.328Z,11.40
2023-04-11T19:15:14.837Z,11.40
2023-04-11T19:17:44.311Z,11.40
2023-04-11T19:20:13.882Z,11.40
2023-04-11T19:22:43.543Z,11.40
2023-04-11T19:25:13.479Z,11.40
2023-04-11T19:27:43.116Z,11.40
2023-04-11T19:30:15.125Z,11.40
2023-04-11T19:33:02.568Z,11.40
2023-04-11T19:35:32.722Z,11.40
2023-04-11T19:38:05.915Z,11.40
2023-04-11T19:40:36.275Z,11.40
2023-04-11T19:43:07.677Z,11.40
2023-04-11T19:45:39.049Z,11.40
2023-04-11T19:48:08.478Z,11.40
2023-04-11T19:50:37.471Z,11.40
2023-04-11T19:53:06.667Z,11.40
2023-04-11T19:55:35.870Z,11.40
2023-04-11T19:58:04.871Z,11.40
2023-04-11T20:00:36.548Z,11.40
2023-04-11T20:03:12.575Z,11.50
2023-04-11T20:05:42.728Z,11.40
2023-04-11T20:08:12.307Z,11.40
2023-04-11T20:10:42.237Z,11.40
2023-04-11T20:13:11.195Z,11.40
2023-04-11T20:15:40.308Z,11.30
2023-04-11T20:18:13.393Z,11.40
2023-04-11T20:20:42.521Z,11.50
2023-04-11T20:23:15.914Z,11.40
2023-04-11T20:25:45.187Z,11.40
2023-04-11T20:28:14.163Z,11.50
2023-04-11T20:30:43.610Z,11.50
2023-04-11T20:33:14.540Z,11.50
2023-04-11T20:35:43.894Z,11.50
2023-04-11T20:38:13.121Z,11.50
2023-04-11T20:40:42.266Z,11.50
2023-04-11T20:43:18.010Z,11.50
2023-04-11T20:45:50.861Z,11.50
2023-04-11T20:48:22.165Z,11.50
2023-04-11T20:50:53.805Z,11.50
2023-04-11T20:53:23.148Z,11.50
2023-04-11T20:55:52.732Z,11.50
2023-04-11T20:58:22.370Z,11.50
2023-04-11T21:00:51.550Z,11.50
2023-04-11T21:03:23.259Z,11.40
2023-04-11T21:05:52.449Z,11.50
2023-04-11T21:08:21.955Z,11.50
2023-04-11T21:11:09.574Z,11.50
2023-04-11T21:13:38.936Z,11.50
2023-04-11T21:16:11.631Z,11.50
2023-04-11T21:18:42.120Z,11.50
2023-04-11T21:21:11.442Z,11.50
2023-04-11T21:23:40.865Z,11.50
2023-04-11T21:26:10.190Z,11.50
2023-04-11T21:28:39.555Z,11.50
2023-04-11T21:31:08.933Z,11.40
2023-04-11T21:33:38.131Z,11.40
2023-04-11T21:36:09.656Z,11.40
2023-04-11T21:38:38.919Z,11.40
2023-04-11T21:41:08.708Z,11.40
2023-04-11T21:43:38.093Z,11.40
2023-04-11T21:46:07.716Z,11.40
2023-04-11T21:48:37.215Z,11.40
2023-04-11T21:51:08.329Z,11.30
2023-04-11T21:53:42.592Z,11.30
2023-04-11T21:56:12.772Z,11.30
2023-04-11T21:58:41.818Z,11.30
2023-04-11T22:01:12.381Z,11.20
2023-04-11T22:03:41.756Z,11.20
2023-04-11T22:06:13.120Z,11.30
2023-04-11T22:08:42.488Z,11.40
2023-04-11T22:11:14.346Z,11.30
2023-04-11T22:13:47.735Z,11.30
2023-04-11T22:16:17.088Z,11.30
2023-04-11T22:18:50.379Z,11.30
2023-04-11T22:21:22.275Z,11.30
2023-04-11T22:23:56.670Z,11.30
2023-04-11T22:26:49.119Z,11.30
2023-04-11T22:29:22.045Z,11.40
2023-04-11T22:31:52.338Z,11.40
2023-04-11T22:34:21.664Z,11.40
2023-04-11T22:36:52.327Z,11.40
2023-04-11T22:39:22.699Z,11.40
2023-04-11T22:41:53.631Z,11.40
2023-04-11T22:44:23.300Z,11.40
2023-04-11T22:47:06.828Z,11.50
2023-04-11T22:49:41.095Z,11.50
2023-04-11T22:52:15.299Z,11.50
2023-04-11T22:54:45.671Z,11.40
2023-04-11T22:57:21.062Z,11.40
2023-04-11T22:59:50.134Z,11.40
2023-04-11T23:02:19.178Z,11.40
2023-04-11T23:04:48.306Z,11.30
2023-04-11T23:07:18.731Z,11.30
2023-04-11T23:09:47.657Z,11.30
2023-04-11T23:12:16.705Z,11.30
2023-04-11T23:14:46.823Z,11.30
2023-04-11T23:17:15.949Z,11.20
2023-04-11T23:19:45.267Z,11.20
2023-04-11T23:22:14.150Z,11.20
2023-04-11T23:24:45.661Z,11.20
2023-04-11T23:27:14.736Z,11.20
2023-04-11T23:29:43.749Z,11.20
2023-04-11T23:32:15.920Z,11.20
2023-04-11T23:35:04.740Z,11.20
2023-04-11T23:37:33.760Z,11.30
2023-04-11T23:40:10.725Z,11.30
2023-04-11T23:42:40.125Z,11.30
2023-04-11T23:45:10.877Z,11.30
2023-04-11T23:47:39.933Z,11.30
2023-04-11T23:50:09.737Z,11.30
2023-04-11T23:52:39.131Z,11.30
2023-04-11T23:55:10.815Z,11.30
2023-04-11T23:57:39.860Z,11.30
